createdAt,value
2023-01-25T00:02:26.897Z,0.48
2023-01-25T00:05:13.647Z,0.80
2023-01-25T00:08:01.799Z,0.67
2023-01-25T00:10:52.445Z,0.33
2023-01-25T00:13:39.207Z,0.96
2023-01-25T00:16:25.998Z,0.76
2023-01-25T00:19:13.235Z,0.55
2023-01-25T00:21:59.955Z,0.50
2023-01-25T00:24:48.326Z,0.51
2023-01-25T00:27:35.221Z,0.45
2023-01-25T00:30:22.213Z,0.75
2023-01-25T00:33:44.819Z,0.94
2023-01-25T00:36:41.177Z,0.65
2023-01-25T00:39:30.853Z,0.54
2023-01-25T00:42:20.611Z,0.53
2023-01-25T00:45:08.721Z,0.50
2023-01-25T00:47:56.387Z,0.53
2023-01-25T00:50:43.315Z,0.44
2023-01-25T00:53:30.044Z,0.43
2023-01-25T00:56:16.853Z,0.39
2023-01-25T00:59:05.065Z,0.73
2023-01-25T01:01:53.534Z,0.57
2023-01-25T01:04:40.297Z,0.48
2023-01-25T01:07:29.076Z,0.69
2023-01-25T01:10:16.035Z,0.51
2023-01-25T01:13:02.919Z,0.69
2023-01-25T01:15:51.986Z,0.86
2023-01-25T01:18:40.928Z,0.89
2023-01-25T01:21:28.283Z,0.79
2023-01-25T01:24:18.113Z,0.58
2023-01-25T01:27:04.762Z,0.73
2023-01-25T01:29:51.460Z,0.57
2023-01-25T01:32:40.161Z,0.51
2023-01-25T01:35:26.841Z,0.46
2023-01-25T01:38:13.717Z,0.70
2023-01-25T01:41:00.515Z,0.96
2023-01-25T01:43:47.728Z,0.37
2023-01-25T01:46:37.658Z,0.80
2023-01-25T01:49:33.120Z,0.63
2023-01-25T01:52:32.184Z,0.56
2023-01-25T01:55:24.322Z,0.77
2023-01-25T01:58:12.389Z,0.81
2023-01-25T02:00:59.513Z,0.58
2023-01-25T02:03:46.066Z,0.50
2023-01-25T02:06:43.968Z,0.47
2023-01-25T02:09:34.721Z,0.46
2023-01-25T02:12:24.295Z,0.46
2023-01-25T02:15:12.149Z,0.44
2023-01-25T02:17:59.893Z,0.45
2023-01-25T02:20:49.668Z,0.59
2023-01-25T02:23:43.901Z,0.78
2023-01-25T02:26:32.431Z,0.59
2023-01-25T02:29:23.727Z,0.64
2023-01-25T02:32:12.086Z,0.47
2023-01-25T02:34:58.701Z,0.44
2023-01-25T02:37:45.743Z,0.52
2023-01-25T02:40:37.803Z,0.48
2023-01-25T02:43:30.421Z,0.48
2023-01-25T02:46:23.689Z,0.77
2023-01-25T02:49:10.910Z,0.60
2023-01-25T02:51:58.181Z,0.50
2023-01-25T02:54:45.831Z,0.61
2023-01-25T02:57:32.714Z,0.95
2023-01-25T03:00:21.860Z,0.88
2023-01-25T03:03:08.265Z,0.65
2023-01-25T03:05:55.130Z,0.54
2023-01-25T03:08:41.950Z,0.51
2023-01-25T03:11:28.669Z,0.64
2023-01-25T03:14:16.844Z,0.74
2023-01-25T03:17:05.405Z,0.68
2023-01-25T03:19:54.019Z,0.61
2023-01-25T03:22:42.020Z,0.79
2023-01-25T03:25:29.256Z,0.65
2023-01-25T03:28:27.095Z,0.72
2023-01-25T03:31:16.086Z,0.77
2023-01-25T03:34:04.394Z,0.79
2023-01-25T03:36:55.384Z,1.08
2023-01-25T03:39:42.178Z,1.04
2023-01-25T03:42:28.947Z,0.67
2023-01-25T03:45:17.767Z,0.68
2023-01-25T03:48:05.187Z,0.59
2023-01-25T03:50:55.019Z,0.51
2023-01-25T03:53:41.341Z,0.51
2023-01-25T03:56:35.245Z,0.57
2023-01-25T03:59:37.411Z,0.53
2023-01-25T04:02:24.371Z,0.49
2023-01-25T04:05:11.214Z,0.48
2023-01-25T04:07:59.599Z,0.49
2023-01-25T04:10:58.935Z,0.54
2023-01-25T04:13:45.575Z,0.47
2023-01-25T04:16:36.221Z,0.49
2023-01-25T04:19:40.877Z,0.46
2023-01-25T04:22:31.136Z,0.48
2023-01-25T04:25:20.470Z,0.62
2023-01-25T04:28:11.855Z,0.59
2023-01-25T04:30:59.871Z,0.28
2023-01-25T04:33:53.024Z,0.58
2023-01-25T04:36:40.171Z,0.63
2023-01-25T04:39:27.500Z,0.74
2023-01-25T04:42:15.747Z,0.61
2023-01-25T04:45:05.860Z,0.64
2023-01-25T04:47:57.430Z,0.58
2023-01-25T04:50:44.931Z,0.69
2023-01-25T04:53:32.965Z,0.60
2023-01-25T04:56:21.279Z,0.53
2023-01-25T04:59:14.759Z,0.51
2023-01-25T05:02:02.672Z,0.61
2023-01-25T05:04:49.494Z,0.55
2023-01-25T05:07:38.654Z,0.51
2023-01-25T05:10:25.246Z,0.68
2023-01-25T05:13:47.363Z,0.76
2023-01-25T05:16:42.025Z,0.67
2023-01-25T05:19:28.432Z,0.61
2023-01-25T05:22:21.098Z,0.55
2023-01-25T05:25:31.829Z,0.56
2023-01-25T05:28:18.968Z,0.59
2023-01-25T05:31:32.218Z,0.55
2023-01-25T05:34:20.239Z,0.56
2023-01-25T05:37:09.397Z,0.60
2023-01-25T05:40:01.163Z,0.61
2023-01-25T05:42:54.854Z,0.66
2023-01-25T05:45:43.530Z,0.62
2023-01-25T05:48:31.231Z,0.57
2023-01-25T05:51:20.129Z,0.60
2023-01-25T05:54:08.821Z,0.57
2023-01-25T05:56:55.652Z,0.62
2023-01-25T05:59:43.078Z,0.60
2023-01-25T06:02:32.556Z,0.95
2023-01-25T06:05:19.332Z,0.87
2023-01-25T06:08:07.564Z,0.73
2023-01-25T06:11:08.488Z,0.65
2023-01-25T06:13:56.504Z,0.73
2023-01-25T06:16:43.513Z,0.66
2023-01-25T06:19:58.609Z,1.03
2023-01-25T06:22:56.004Z,0.86
2023-01-25T06:25:44.324Z,0.70
2023-01-25T06:28:32.135Z,0.62
2023-01-25T06:31:19.745Z,0.59
2023-01-25T06:34:08.203Z,0.61
2023-01-25T06:36:55.183Z,0.64
2023-01-25T06:39:41.974Z,0.78
2023-01-25T06:42:30.188Z,0.93
2023-01-25T06:45:17.159Z,0.86
2023-01-25T06:48:03.761Z,0.80
2023-01-25T06:50:57.939Z,0.75
2023-01-25T06:53:46.029Z,0.76
2023-01-25T06:56:33.431Z,0.71
2023-01-25T06:59:21.359Z,0.38
2023-01-25T07:02:08.316Z,0.65
2023-01-25T07:04:55.127Z,0.68
2023-01-25T07:07:41.698Z,0.64
2023-01-25T07:10:28.483Z,0.65
2023-01-25T07:13:15.433Z,0.66
2023-01-25T07:16:05.348Z,0.74
2023-01-25T07:18:51.743Z,0.75
2023-01-25T07:21:38.671Z,0.78
2023-01-25T07:24:27.372Z,0.80
2023-01-25T07:27:13.987Z,0.83
2023-01-25T07:30:00.806Z,0.81
2023-01-25T07:32:49.030Z,0.82
2023-01-25T07:35:36.601Z,1.01
2023-01-25T07:38:23.259Z,0.92
2023-01-25T07:41:10.136Z,0.96
2023-01-25T07:43:57.523Z,0.78
2023-01-25T07:46:55.209Z,0.91
2023-01-25T07:49:43.419Z,0.88
2023-01-25T07:52:29.801Z,1.05
2023-01-25T07:55:16.726Z,1.30
2023-01-25T07:58:03.330Z,1.09
2023-01-25T08:00:50.128Z,1.14
2023-01-25T08:03:37.448Z,1.26
2023-01-25T08:06:30.742Z,1.24
2023-01-25T08:09:20.130Z,1.25
2023-01-25T08:12:08.784Z,1.32
2023-01-25T08:14:55.577Z,1.29
2023-01-25T08:17:42.313Z,1.25
2023-01-25T08:20:29.099Z,1.24
2023-01-25T08:23:17.360Z,1.38
2023-01-25T08:26:08.820Z,1.57
2023-01-25T08:28:58.200Z,1.59
2023-01-25T08:31:45.659Z,1.76
2023-01-25T08:34:34.849Z,1.73
2023-01-25T08:37:22.208Z,1.60
2023-01-25T08:40:19.284Z,1.48
2023-01-25T08:43:06.148Z,1.80
2023-01-25T08:45:57.851Z,1.85
2023-01-25T08:48:44.607Z,1.89
2023-01-25T08:51:32.655Z,1.80
2023-01-25T08:54:19.586Z,1.51
2023-01-25T08:57:07.790Z,1.56
2023-01-25T08:59:54.227Z,1.86
2023-01-25T09:02:41.131Z,1.99
2023-01-25T09:05:29.577Z,1.92
2023-01-25T09:08:16.308Z,1.71
2023-01-25T09:11:03.522Z,1.75
2023-01-25T09:13:52.073Z,2.03
2023-01-25T09:16:39.037Z,1.93
2023-01-25T09:19:25.817Z,2.02
2023-01-25T09:22:12.556Z,1.83
2023-01-25T09:24:59.406Z,1.90
2023-01-25T09:27:46.227Z,1.86
2023-01-25T09:30:46.166Z,1.82
2023-01-25T09:33:43.107Z,1.83
2023-01-25T09:36:29.766Z,1.84
2023-01-25T09:39:16.496Z,2.00
2023-01-25T09:42:27.470Z,1.94
2023-01-25T09:45:24.506Z,1.97
2023-01-25T09:48:22.026Z,1.93
2023-01-25T09:51:22.043Z,1.79
2023-01-25T09:54:11.113Z,1.80
2023-01-25T09:56:59.547Z,1.92
2023-01-25T09:59:48.450Z,1.89
2023-01-25T10:02:41.682Z,2.12
2023-01-25T10:05:34.055Z,2.03
2023-01-25T10:08:28.263Z,1.89
2023-01-25T10:11:22.374Z,1.91
2023-01-25T10:14:14.879Z,1.57
2023-01-25T10:17:09.436Z,1.85
2023-01-25T10:20:10.436Z,1.88
2023-01-25T10:23:15.590Z,2.03
2023-01-25T10:26:08.493Z,1.82
2023-01-25T10:29:04.352Z,2.07
2023-01-25T10:31:53.646Z,2.30
2023-01-25T10:34:55.930Z,2.28
2023-01-25T10:37:44.502Z,2.15
2023-01-25T10:40:41.053Z,2.09
2023-01-25T10:43:28.028Z,2.01
2023-01-25T10:46:21.083Z,1.91
2023-01-25T10:49:23.189Z,1.91
2023-01-25T10:52:18.310Z,1.92
2023-01-25T10:55:14.796Z,1.47
2023-01-25T10:58:02.931Z,1.95
2023-01-25T11:00:53.482Z,2.05
2023-01-25T11:03:42.378Z,1.96
2023-01-25T11:06:37.192Z,1.99
2023-01-25T11:09:35.635Z,1.91
2023-01-25T11:12:22.901Z,1.95
2023-01-25T11:15:26.545Z,1.98
2023-01-25T11:18:17.282Z,1.93
2023-01-25T11:21:12.071Z,1.62
2023-01-25T11:24:01.221Z,1.86
2023-01-25T11:26:48.056Z,1.99
2023-01-25T11:29:34.469Z,1.88
2023-01-25T11:32:26.047Z,1.63
2023-01-25T11:35:15.021Z,1.69
2023-01-25T11:38:13.731Z,1.71
2023-01-25T11:41:11.195Z,1.50
2023-01-25T11:44:21.121Z,1.67
2023-01-25T11:47:23.459Z,1.69
2023-01-25T11:50:17.462Z,1.73
2023-01-25T11:53:27.924Z,1.78
2023-01-25T11:56:24.064Z,1.77
2023-01-25T11:59:23.780Z,1.69
2023-01-25T12:02:32.994Z,1.78
2023-01-25T12:05:45.649Z,1.64
2023-01-25T12:08:54.345Z,1.61
2023-01-25T12:12:00.900Z,1.60
2023-01-25T12:15:04.095Z,1.65
2023-01-25T12:18:15.026Z,1.55
2023-01-25T12:21:17.416Z,1.73
2023-01-25T12:24:23.820Z,1.57
2023-01-25T12:27:25.764Z,1.68
2023-01-25T12:30:22.654Z,1.69
2023-01-25T12:33:16.323Z,1.73
2023-01-25T12:36:09.454Z,1.71
2023-01-25T12:39:00.541Z,1.56
2023-01-25T12:41:52.071Z,1.76
2023-01-25T12:44:41.907Z,1.51
2023-01-25T12:47:36.368Z,1.70
2023-01-25T12:50:28.773Z,1.56
2023-01-25T12:53:22.108Z,1.45
2023-01-25T12:56:13.738Z,1.41
2023-01-25T12:59:09.871Z,1.72
2023-01-25T13:02:03.867Z,1.74
2023-01-25T13:05:02.616Z,1.62
2023-01-25T13:07:57.904Z,1.72
2023-01-25T13:10:51.201Z,1.69
2023-01-25T13:13:38.000Z,1.42
2023-01-25T13:16:43.326Z,1.35
2023-01-25T13:19:42.240Z,1.63
2023-01-25T13:22:59.721Z,1.56
2023-01-25T13:25:49.653Z,1.40
2023-01-25T13:28:45.746Z,1.52
2023-01-25T13:31:51.905Z,1.40
2023-01-25T13:34:59.796Z,1.30
2023-01-25T13:37:46.518Z,1.42
2023-01-25T13:40:36.004Z,1.50
2023-01-25T13:43:24.030Z,1.38
2023-01-25T13:46:15.353Z,1.28
2023-01-25T13:49:05.954Z,1.45
2023-01-25T13:51:53.621Z,1.48
2023-01-25T13:54:44.448Z,0.55
2023-01-25T13:57:32.524Z,1.34
2023-01-25T14:00:22.313Z,1.45
2023-01-25T14:03:09.759Z,1.43
2023-01-25T14:05:58.969Z,1.25
2023-01-25T14:08:47.373Z,1.30
2023-01-25T14:11:36.643Z,1.32
2023-01-25T14:14:27.944Z,1.23
2023-01-25T14:17:21.369Z,1.15
2023-01-25T14:20:19.618Z,1.13
2023-01-25T14:23:07.859Z,1.36
2023-01-25T14:25:59.288Z,1.13
2023-01-25T14:28:59.204Z,1.27
2023-01-25T14:31:53.317Z,1.15
2023-01-25T14:34:42.872Z,1.04
2023-01-25T14:37:31.263Z,0.95
2023-01-25T14:40:23.650Z,1.25
2023-01-25T14:43:11.630Z,1.28
2023-01-25T14:45:59.889Z,0.98
2023-01-25T14:48:48.490Z,1.08
2023-01-25T14:51:42.261Z,1.08
2023-01-25T14:54:31.537Z,0.62
2023-01-25T14:57:33.137Z,1.01
2023-01-25T15:00:23.123Z,0.89
2023-01-25T15:03:17.971Z,0.79
2023-01-25T15:06:06.172Z,1.01
2023-01-25T15:08:54.393Z,0.94
2023-01-25T15:11:46.402Z,0.93
2023-01-25T15:14:33.318Z,1.09
2023-01-25T15:17:41.463Z,0.93
2023-01-25T15:20:36.980Z,1.01
2023-01-25T15:23:25.443Z,1.12
2023-01-25T15:26:21.220Z,1.04
2023-01-25T15:29:14.591Z,0.96
2023-01-25T15:32:01.419Z,1.13
2023-01-25T15:34:48.817Z,0.94
2023-01-25T15:37:35.402Z,1.17
2023-01-25T15:40:23.065Z,0.97
2023-01-25T15:43:13.882Z,1.16
2023-01-25T15:46:01.919Z,1.06
2023-01-25T15:48:50.350Z,1.14
2023-01-25T15:51:37.237Z,1.00
2023-01-25T15:54:24.590Z,0.99
2023-01-25T15:57:21.762Z,1.01
2023-01-25T16:00:17.090Z,1.04
2023-01-25T16:03:04.019Z,0.94
2023-01-25T16:05:55.146Z,0.83
2023-01-25T16:08:41.885Z,1.08
2023-01-25T16:11:29.098Z,0.97
2023-01-25T16:14:15.756Z,1.04
2023-01-25T16:17:05.827Z,0.99
2023-01-25T16:19:52.720Z,0.96
2023-01-25T16:22:39.552Z,1.11
2023-01-25T16:25:26.299Z,1.06
2023-01-25T16:28:15.683Z,1.08
2023-01-25T16:31:02.624Z,1.08
2023-01-25T16:33:51.081Z,1.04
2023-01-25T16:36:39.515Z,0.86
2023-01-25T16:39:28.505Z,1.04
2023-01-25T16:42:15.536Z,0.77
2023-01-25T16:45:02.230Z,0.84
2023-01-25T16:47:49.641Z,1.00
2023-01-25T16:50:37.594Z,0.78
2023-01-25T16:53:24.507Z,0.93
2023-01-25T16:56:17.224Z,1.01
2023-01-25T16:59:06.125Z,0.83
2023-01-25T17:01:53.305Z,0.90
2023-01-25T17:04:40.131Z,0.75
2023-01-25T17:07:28.254Z,0.89
2023-01-25T17:10:15.109Z,0.94
2023-01-25T17:13:01.974Z,0.95
2023-01-25T17:15:48.723Z,0.80
2023-01-25T17:18:35.473Z,0.72
2023-01-25T17:21:22.710Z,0.56
2023-01-25T17:24:14.403Z,0.52
2023-01-25T17:27:01.584Z,0.76
2023-01-25T17:29:48.274Z,0.46
2023-01-25T17:32:34.938Z,0.69
2023-01-25T17:35:21.755Z,0.75
2023-01-25T17:38:09.191Z,0.92
2023-01-25T17:40:57.216Z,0.85
2023-01-25T17:43:44.275Z,0.64
2023-01-25T17:46:33.420Z,0.62
2023-01-25T17:49:22.515Z,0.68
2023-01-25T17:52:09.438Z,0.75
2023-01-25T17:54:56.271Z,0.92
2023-01-25T17:57:44.588Z,0.82
2023-01-25T18:00:31.505Z,0.88
2023-01-25T18:03:18.157Z,0.90
2023-01-25T18:06:09.178Z,0.72
2023-01-25T18:09:00.036Z,0.58
2023-01-25T18:11:46.502Z,0.54
2023-01-25T18:14:36.136Z,0.56
2023-01-25T18:17:22.830Z,0.66
2023-01-25T18:20:11.869Z,0.73
2023-01-25T18:22:58.498Z,0.47
2023-01-25T18:25:45.449Z,0.60
2023-01-25T18:28:32.296Z,0.77
2023-01-25T18:31:20.789Z,0.45
2023-01-25T18:34:07.295Z,0.58
2023-01-25T18:36:58.383Z,0.48
2023-01-25T18:39:45.037Z,0.41
2023-01-25T18:42:31.856Z,0.52
2023-01-25T18:45:18.684Z,0.52
2023-01-25T18:48:07.570Z,0.57
2023-01-25T18:50:54.195Z,0.56
2023-01-25T18:53:43.568Z,0.52
2023-01-25T18:56:31.738Z,0.45
2023-01-25T18:59:18.074Z,0.53
2023-01-25T19:02:05.759Z,0.65
2023-01-25T19:04:53.800Z,0.62
2023-01-25T19:07:40.253Z,0.45
2023-01-25T19:10:27.228Z,0.57
2023-01-25T19:13:14.080Z,0.52
2023-01-25T19:16:02.447Z,0.64
2023-01-25T19:18:52.833Z,0.67
2023-01-25T19:21:41.923Z,0.27
2023-01-25T19:24:28.932Z,0.72
2023-01-25T19:27:15.430Z,0.60
2023-01-25T19:30:02.116Z,0.39
2023-01-25T19:32:49.003Z,0.38
2023-01-25T19:35:35.825Z,0.35
2023-01-25T19:38:23.877Z,0.44
2023-01-25T19:41:13.618Z,0.47
2023-01-25T19:44:01.802Z,0.57
2023-01-25T19:46:49.481Z,0.66
2023-01-25T19:49:36.366Z,0.70
2023-01-25T19:52:23.164Z,0.61
2023-01-25T19:55:11.749Z,0.42
2023-01-25T19:57:58.516Z,0.48
2023-01-25T20:00:45.191Z,0.61
2023-01-25T20:03:32.213Z,0.59
2023-01-25T20:06:20.384Z,0.45
2023-01-25T20:09:07.242Z,0.36
2023-01-25T20:11:57.737Z,0.40
2023-01-25T20:14:44.505Z,0.51
2023-01-25T20:17:31.241Z,0.33
2023-01-25T20:20:18.143Z,0.22
2023-01-25T20:23:04.773Z,0.28
2023-01-25T20:25:59.047Z,0.48
2023-01-25T20:28:51.625Z,0.27
2023-01-25T20:31:41.215Z,0.47
2023-01-25T20:34:27.918Z,0.34
2023-01-25T20:37:14.428Z,0.39
2023-01-25T20:40:01.407Z,0.48
2023-01-25T20:42:47.855Z,0.48
2023-01-25T20:45:38.314Z,0.49
2023-01-25T20:48:25.584Z,0.29
2023-01-25T20:51:14.065Z,0.38
2023-01-25T20:54:01.220Z,0.37
2023-01-25T20:56:48.645Z,0.48
2023-01-25T20:59:35.579Z,0.53
2023-01-25T21:02:25.018Z,0.50
2023-01-25T21:05:12.045Z,0.50
2023-01-25T21:07:59.069Z,0.27
2023-01-25T21:10:50.823Z,0.09
2023-01-25T21:13:37.376Z,0.07
2023-01-25T21:16:24.916Z,0.29
2023-01-25T21:19:12.711Z,0.31
2023-01-25T21:21:59.543Z,0.21
2023-01-25T21:24:46.344Z,0.11
2023-01-25T21:27:33.067Z,0.02
2023-01-25T21:30:22.470Z,0.18
2023-01-25T21:33:10.486Z,0.07
2023-01-25T21:36:02.579Z,0.10
2023-01-25T21:38:50.915Z,0.17
2023-01-25T21:41:38.658Z,0.24
2023-01-25T21:44:42.709Z,0.18
2023-01-25T21:47:31.473Z,0.14
2023-01-25T21:50:35.554Z,0.28
2023-01-25T21:53:23.987Z,0.19
2023-01-25T21:56:10.530Z,0.32
2023-01-25T21:58:57.779Z,0.15
2023-01-25T22:01:44.895Z,0.19
2023-01-25T22:04:35.934Z,0.11
2023-01-25T22:07:22.328Z,0.19
2023-01-25T22:10:12.172Z,0.29
2023-01-25T22:12:59.275Z,0.05
2023-01-25T22:15:46.016Z,0.02
2023-01-25T22:18:35.724Z,0.02
2023-01-25T22:21:24.199Z,-0.06
2023-01-25T22:24:12.250Z,0.20
2023-01-25T22:27:37.601Z,0.07
2023-01-25T22:30:24.594Z,-0.06
2023-01-25T22:33:10.976Z,0.07
2023-01-25T22:35:57.873Z,0.08
2023-01-25T22:38:44.749Z,0.03
2023-01-25T22:41:33.585Z,0.25
2023-01-25T22:44:22.665Z,0.07
2023-01-25T22:47:09.356Z,0.06
2023-01-25T22:49:56.206Z,0.09
2023-01-25T22:52:42.948Z,0.24
2023-01-25T22:55:30.939Z,0.18
2023-01-25T22:58:17.491Z,0.28
2023-01-25T23:01:09.693Z,0.29
2023-01-25T23:03:57.077Z,0.28
2023-01-25T23:06:43.795Z,0.27
2023-01-25T23:09:30.727Z,0.28
2023-01-25T23:12:17.662Z,0.27
2023-01-25T23:15:07.230Z,0.25
2023-01-25T23:18:12.969Z,0.22
2023-01-25T23:21:03.481Z,0.19
2023-01-25T23:23:50.519Z,0.26
2023-01-25T23:26:39.167Z,0.28
2023-01-25T23:29:25.838Z,0.27
2023-01-25T23:32:12.638Z,0.24
2023-01-25T23:35:00.767Z,0.26
2023-01-25T23:37:48.604Z,0.10
2023-01-25T23:40:35.283Z,0.00
2023-01-25T23:43:22.264Z,0.03
2023-01-25T23:46:09.407Z,0.15
2023-01-25T23:48:56.335Z,0.22
2023-01-25T23:51:44.182Z,0.28
2023-01-25T23:54:30.935Z,0.17
2023-01-25T23:57:17.499Z,0.12
